SWA1943 KBWI-KAUS
Flight info
| Callsign | SWA1943 |
|---|---|
| Flight time | 3h 1m |
| Altitude | 28000 |
| Route | TERPZ8 MAULS Q40 ALEAN VXV SQS SWEUP LUKKN WLEEE7 |
| Aircraft | B38M/M-SADE2E3GHIJ4J7P2RWZ/LB1D1 |
Departure
| Time | 2026-05-05 12:38 |
|---|---|
| Airport | Baltimore/Washington International Thurgood Marshall Airport (KBWI) |
Arrival
| Time | 2026-05-05 15:40 |
|---|---|
| Airport | Austin Bergstrom International Airport (KAUS) |
| Time | Latitude | Longitude | Altitude | Speed | Heading |
|---|---|---|---|---|---|
| 2026-05-05 11:52 | 39.18034 | -76.67351 | 158 ft | 0 kts | 59° |
| 2026-05-05 12:28 | 39.18029 | -76.67362 | 158 ft | 4 kts | 56° |
| 2026-05-05 12:28 | 39.18015 | -76.67388 | 157 ft | 3 kts | 55° |
| 2026-05-05 12:28 | 39.17998 | -76.67407 | 156 ft | 4 kts | 6° |
| 2026-05-05 12:28 | 39.17975 | -76.67398 | 156 ft | 4 kts | 325° |
| 2026-05-05 12:29 | 39.17966 | -76.67390 | 156 ft | 1 kts | 324° |
| 2026-05-05 12:33 | 39.17973 | -76.67397 | 156 ft | 3 kts | 324° |
| 2026-05-05 12:33 | 39.17996 | -76.67431 | 155 ft | 7 kts | 287° |
| 2026-05-05 12:33 | 39.17954 | -76.67470 | 151 ft | 12 kts | 166° |
| 2026-05-05 12:34 | 39.17873 | -76.67409 | 151 ft | 15 kts | 147° |
| 2026-05-05 12:34 | 39.17785 | -76.67325 | 152 ft | 17 kts | 141° |
| 2026-05-05 12:34 | 39.17688 | -76.67231 | 153 ft | 18 kts | 145° |
| 2026-05-05 12:34 | 39.17578 | -76.67132 | 154 ft | 20 kts | 145° |
| 2026-05-05 12:35 | 39.17481 | -76.66997 | 156 ft | 21 kts | 111° |
| 2026-05-05 12:35 | 39.17465 | -76.66802 | 157 ft | 23 kts | 95° |
| 2026-05-05 12:35 | 39.17455 | -76.66585 | 156 ft | 23 kts | 93° |
| 2026-05-05 12:35 | 39.17516 | -76.66436 | 156 ft | 17 kts | 45° |
| 2026-05-05 12:36 | 39.17479 | -76.66287 | 152 ft | 21 kts | 124° |
| 2026-05-05 12:36 | 39.17454 | -76.66092 | 151 ft | 24 kts | 93° |
| 2026-05-05 12:36 | 39.17440 | -76.65884 | 148 ft | 24 kts | 93° |
| 2026-05-05 12:36 | 39.17429 | -76.65676 | 144 ft | 21 kts | 94° |
| 2026-05-05 12:37 | 39.17416 | -76.65547 | 144 ft | 14 kts | 121° |
| 2026-05-05 12:37 | 39.17324 | -76.65526 | 143 ft | 12 kts | 187° |
| 2026-05-05 12:37 | 39.17280 | -76.65571 | 143 ft | 1 kts | 278° |
| 2026-05-05 12:38 | 39.17285 | -76.65614 | 143 ft | 22 kts | 277° |
| 2026-05-05 12:38 | 39.17316 | -76.66168 | 149 ft | 100 kts | 274° |
| 2026-05-05 12:38 | 39.17378 | -76.67346 | 170 ft | 159 kts | 273° |
| 2026-05-05 12:38 | 39.17463 | -76.68778 | 847 ft | 163 kts | 274° |
| 2026-05-05 12:39 | 39.17576 | -76.70303 | 1577 ft | 177 kts | 272° |
| 2026-05-05 12:39 | 39.17654 | -76.71978 | 2282 ft | 198 kts | 272° |
| 2026-05-05 12:39 | 39.17746 | -76.73855 | 2885 ft | 227 kts | 270° |
| 2026-05-05 12:39 | 39.17893 | -76.75879 | 4154 ft | 222 kts | 276° |
| 2026-05-05 12:40 | 39.18270 | -76.77897 | 5014 ft | 241 kts | 280° |
| 2026-05-05 12:40 | 39.18696 | -76.80049 | 5951 ft | 250 kts | 281° |
| 2026-05-05 12:40 | 39.19125 | -76.82237 | 7033 ft | 255 kts | 281° |
| 2026-05-05 12:40 | 39.19414 | -76.83715 | 7681 ft | 259 kts | 280° |
| 2026-05-05 12:41 | 39.19860 | -76.86001 | 8663 ft | 265 kts | 280° |
| 2026-05-05 12:41 | 39.20312 | -76.88325 | 9607 ft | 270 kts | 280° |
| 2026-05-05 12:41 | 39.20774 | -76.90700 | 10507 ft | 278 kts | 280° |
| 2026-05-05 12:41 | 39.21260 | -76.93206 | 11056 ft | 298 kts | 280° |
| 2026-05-05 12:42 | 39.21778 | -76.95882 | 11516 ft | 317 kts | 280° |
| 2026-05-05 12:42 | 39.22027 | -76.98746 | 12122 ft | 325 kts | 268° |
| 2026-05-05 12:42 | 39.22061 | -77.01701 | 12870 ft | 333 kts | 269° |
| 2026-05-05 12:42 | 39.22107 | -77.04683 | 13771 ft | 335 kts | 269° |
| 2026-05-05 12:43 | 39.22152 | -77.07711 | 14583 ft | 339 kts | 269° |
| 2026-05-05 12:43 | 39.22064 | -77.10799 | 15413 ft | 341 kts | 258° |
| 2026-05-05 12:43 | 39.21229 | -77.13589 | 16167 ft | 344 kts | 239° |
| 2026-05-05 12:43 | 39.19613 | -77.15906 | 16919 ft | 351 kts | 220° |
| 2026-05-05 12:44 | 39.17552 | -77.17713 | 17641 ft | 356 kts | 217° |
| 2026-05-05 12:44 | 39.15497 | -77.19464 | 18315 ft | 361 kts | 217° |
| 2026-05-05 12:44 | 39.13360 | -77.21261 | 19005 ft | 365 kts | 216° |
| 2026-05-05 12:44 | 39.11210 | -77.23054 | 19628 ft | 369 kts | 216° |
| 2026-05-05 12:45 | 39.09050 | -77.24806 | 20222 ft | 375 kts | 212° |
| 2026-05-05 12:45 | 39.06710 | -77.26417 | 20849 ft | 379 kts | 212° |
| 2026-05-05 12:45 | 39.04375 | -77.28040 | 21401 ft | 384 kts | 212° |
| 2026-05-05 12:45 | 39.02013 | -77.29693 | 21958 ft | 388 kts | 212° |
| 2026-05-05 12:46 | 38.99632 | -77.31365 | 22511 ft | 392 kts | 212° |
| 2026-05-05 12:46 | 38.97228 | -77.33054 | 23051 ft | 396 kts | 212° |
| 2026-05-05 12:46 | 38.94798 | -77.34760 | 23564 ft | 400 kts | 212° |
| 2026-05-05 12:46 | 38.92350 | -77.36477 | 24085 ft | 403 kts | 212° |
| 2026-05-05 12:47 | 38.89871 | -77.38216 | 24568 ft | 407 kts | 212° |
| 2026-05-05 12:47 | 38.87374 | -77.39965 | 25064 ft | 410 kts | 212° |
| 2026-05-05 12:47 | 38.84855 | -77.41728 | 25540 ft | 413 kts | 212° |
| 2026-05-05 12:47 | 38.82323 | -77.43500 | 26006 ft | 416 kts | 212° |
| 2026-05-05 12:48 | 38.79768 | -77.45285 | 26459 ft | 419 kts | 212° |
| 2026-05-05 12:48 | 38.77207 | -77.47074 | 26918 ft | 422 kts | 211° |
| 2026-05-05 12:48 | 38.74624 | -77.48890 | 27340 ft | 424 kts | 213° |
| 2026-05-05 12:48 | 38.72329 | -77.51220 | 27699 ft | 423 kts | 229° |
| 2026-05-05 12:49 | 38.70354 | -77.54027 | 27894 ft | 424 kts | 229° |
| 2026-05-05 12:49 | 38.68364 | -77.56844 | 27973 ft | 432 kts | 230° |
| 2026-05-05 12:49 | 38.66335 | -77.59747 | 27979 ft | 439 kts | 230° |
| 2026-05-05 12:49 | 38.64313 | -77.62660 | 27986 ft | 439 kts | 230° |
| 2026-05-05 12:50 | 38.62284 | -77.65587 | 27998 ft | 439 kts | 230° |
| 2026-05-05 12:50 | 38.60262 | -77.68505 | 28000 ft | 439 kts | 230° |
| 2026-05-05 12:50 | 38.56208 | -77.74349 | 27993 ft | 439 kts | 230° |
| 2026-05-05 12:51 | 38.52145 | -77.80167 | 28000 ft | 439 kts | 229° |
| 2026-05-05 12:51 | 38.48021 | -77.85979 | 28007 ft | 438 kts | 229° |
| 2026-05-05 12:52 | 38.44058 | -77.91882 | 28011 ft | 437 kts | 236° |
| 2026-05-05 12:52 | 38.40533 | -77.98214 | 28013 ft | 438 kts | 236° |
| 2026-05-05 12:53 | 38.37020 | -78.04543 | 28012 ft | 437 kts | 236° |
| 2026-05-05 12:53 | 38.33510 | -78.10860 | 28010 ft | 437 kts | 236° |
| 2026-05-05 12:54 | 38.28231 | -78.20337 | 28016 ft | 437 kts | 236° |
| 2026-05-05 12:55 | 38.24711 | -78.26641 | 28019 ft | 437 kts | 236° |
| 2026-05-05 12:55 | 38.21185 | -78.32943 | 28006 ft | 437 kts | 236° |
| 2026-05-05 12:56 | 38.17729 | -78.39285 | 27999 ft | 436 kts | 243° |
| 2026-05-05 12:56 | 38.15428 | -78.46399 | 27999 ft | 436 kts | 249° |
| 2026-05-05 12:57 | 38.13183 | -78.53548 | 28003 ft | 436 kts | 249° |
| 2026-05-05 12:57 | 38.10951 | -78.60690 | 28013 ft | 435 kts | 249° |
| 2026-05-05 12:58 | 38.08714 | -78.67835 | 28018 ft | 435 kts | 249° |
| 2026-05-05 12:58 | 38.06475 | -78.74969 | 28022 ft | 435 kts | 249° |
| 2026-05-05 12:59 | 38.04231 | -78.82100 | 28027 ft | 436 kts | 249° |
| 2026-05-05 12:59 | 38.01967 | -78.89277 | 28031 ft | 436 kts | 249° |
| 2026-05-05 13:00 | 37.98583 | -78.99970 | 28027 ft | 435 kts | 250° |
| 2026-05-05 13:01 | 37.94072 | -79.14162 | 28029 ft | 434 kts | 250° |
| 2026-05-05 13:01 | 37.91808 | -79.21257 | 28034 ft | 434 kts | 250° |
| 2026-05-05 13:02 | 37.89546 | -79.28333 | 28044 ft | 433 kts | 250° |
| 2026-05-05 13:02 | 37.86946 | -79.35216 | 28057 ft | 437 kts | 239° |
| 2026-05-05 13:03 | 37.83658 | -79.41697 | 28060 ft | 438 kts | 240° |
| 2026-05-05 13:03 | 37.80381 | -79.48173 | 28063 ft | 437 kts | 240° |
| 2026-05-05 13:04 | 37.77099 | -79.54643 | 28066 ft | 437 kts | 240° |
| 2026-05-05 13:04 | 37.73811 | -79.61109 | 28072 ft | 437 kts | 240° |
| 2026-05-05 13:05 | 37.70519 | -79.67570 | 28074 ft | 438 kts | 240° |
| 2026-05-05 13:05 | 37.67226 | -79.74023 | 28075 ft | 437 kts | 240° |
| 2026-05-05 13:06 | 37.63927 | -79.80473 | 28074 ft | 438 kts | 240° |
| 2026-05-05 13:06 | 37.60598 | -79.86971 | 28078 ft | 438 kts | 240° |
| 2026-05-05 13:07 | 37.57289 | -79.93416 | 28071 ft | 437 kts | 240° |
| 2026-05-05 13:07 | 37.53981 | -79.99846 | 28072 ft | 437 kts | 240° |
| 2026-05-05 13:08 | 37.50670 | -80.06271 | 28073 ft | 438 kts | 240° |
| 2026-05-05 13:08 | 37.47351 | -80.12698 | 28071 ft | 437 kts | 240° |
| 2026-05-05 13:09 | 37.44024 | -80.19127 | 28084 ft | 439 kts | 240° |
| 2026-05-05 13:09 | 37.40697 | -80.25544 | 28082 ft | 438 kts | 240° |
| 2026-05-05 13:10 | 37.37360 | -80.31969 | 28094 ft | 439 kts | 240° |
| 2026-05-05 13:10 | 37.34023 | -80.38381 | 28099 ft | 439 kts | 240° |
| 2026-05-05 13:11 | 37.30676 | -80.44804 | 28101 ft | 439 kts | 240° |
| 2026-05-05 13:11 | 37.27366 | -80.51238 | 28100 ft | 438 kts | 242° |
| 2026-05-05 13:12 | 37.24236 | -80.57812 | 28101 ft | 439 kts | 242° |
| 2026-05-05 13:12 | 37.21082 | -80.64373 | 28086 ft | 439 kts | 242° |
| 2026-05-05 13:13 | 37.17927 | -80.70917 | 28089 ft | 439 kts | 242° |
| 2026-05-05 13:13 | 37.14765 | -80.77462 | 28083 ft | 439 kts | 242° |
| 2026-05-05 13:14 | 37.11596 | -80.84008 | 28083 ft | 439 kts | 242° |
| 2026-05-05 13:14 | 37.08941 | -80.89483 | 28095 ft | 439 kts | 242° |
| 2026-05-05 13:15 | 37.05764 | -80.96025 | 28092 ft | 439 kts | 242° |
| 2026-05-05 13:15 | 37.02584 | -81.02557 | 28092 ft | 440 kts | 242° |
| 2026-05-05 13:16 | 36.99396 | -81.09094 | 28098 ft | 440 kts | 242° |
| 2026-05-05 13:16 | 36.96204 | -81.15625 | 28099 ft | 440 kts | 242° |
| 2026-05-05 13:17 | 36.93008 | -81.22153 | 28112 ft | 440 kts | 242° |
| 2026-05-05 13:17 | 36.89807 | -81.28677 | 28115 ft | 440 kts | 242° |
| 2026-05-05 13:18 | 36.86605 | -81.35193 | 28119 ft | 440 kts | 242° |
| 2026-05-05 13:18 | 36.83399 | -81.41708 | 28118 ft | 441 kts | 242° |
| 2026-05-05 13:19 | 36.80182 | -81.48237 | 28119 ft | 441 kts | 242° |
| 2026-05-05 13:19 | 36.76940 | -81.54804 | 28116 ft | 441 kts | 242° |
| 2026-05-05 13:20 | 36.73742 | -81.61273 | 28105 ft | 441 kts | 243° |
| 2026-05-05 13:20 | 36.71152 | -81.68196 | 28099 ft | 438 kts | 249° |
| 2026-05-05 13:21 | 36.68703 | -81.75142 | 28098 ft | 438 kts | 249° |
| 2026-05-05 13:21 | 36.66254 | -81.82082 | 28091 ft | 438 kts | 249° |
| 2026-05-05 13:22 | 36.63797 | -81.89030 | 28085 ft | 438 kts | 249° |
| 2026-05-05 13:22 | 36.61339 | -81.95964 | 28082 ft | 438 kts | 249° |
| 2026-05-05 13:23 | 36.58877 | -82.02894 | 28079 ft | 438 kts | 249° |
| 2026-05-05 13:23 | 36.56408 | -82.09829 | 28083 ft | 438 kts | 249° |
| 2026-05-05 13:24 | 36.53938 | -82.16751 | 28082 ft | 438 kts | 249° |
| 2026-05-05 13:24 | 36.51457 | -82.23687 | 28079 ft | 438 kts | 249° |
| 2026-05-05 13:25 | 36.48978 | -82.30603 | 28075 ft | 438 kts | 249° |
| 2026-05-05 13:25 | 36.46492 | -82.37523 | 28074 ft | 438 kts | 249° |
| 2026-05-05 13:26 | 36.44003 | -82.44437 | 28075 ft | 438 kts | 249° |
| 2026-05-05 13:26 | 36.41510 | -82.51345 | 28073 ft | 438 kts | 249° |
| 2026-05-05 13:27 | 36.39014 | -82.58243 | 28073 ft | 438 kts | 249° |
| 2026-05-05 13:27 | 36.36514 | -82.65140 | 28070 ft | 439 kts | 249° |
| 2026-05-05 13:28 | 36.33989 | -82.72090 | 28067 ft | 439 kts | 249° |
| 2026-05-05 13:28 | 36.31477 | -82.78990 | 28064 ft | 439 kts | 249° |
| 2026-05-05 13:29 | 36.28962 | -82.85881 | 28063 ft | 439 kts | 249° |
| 2026-05-05 13:29 | 36.26445 | -82.92765 | 28063 ft | 439 kts | 249° |
| 2026-05-05 13:30 | 36.23920 | -82.99651 | 28064 ft | 439 kts | 249° |
| 2026-05-05 13:30 | 36.21391 | -83.06534 | 28063 ft | 439 kts | 248° |
| 2026-05-05 13:31 | 36.18856 | -83.13420 | 28069 ft | 439 kts | 248° |
| 2026-05-05 13:31 | 36.16320 | -83.20295 | 28072 ft | 439 kts | 248° |
| 2026-05-05 13:32 | 36.13782 | -83.27159 | 28071 ft | 439 kts | 248° |
| 2026-05-05 13:32 | 36.11237 | -83.34026 | 28072 ft | 439 kts | 248° |
| 2026-05-05 13:33 | 36.08693 | -83.40874 | 28073 ft | 439 kts | 248° |
| 2026-05-05 13:33 | 36.06140 | -83.47732 | 28072 ft | 438 kts | 248° |
| 2026-05-05 13:34 | 36.03587 | -83.54577 | 28067 ft | 438 kts | 248° |
| 2026-05-05 13:34 | 36.01033 | -83.61409 | 28064 ft | 438 kts | 248° |
| 2026-05-05 13:35 | 35.98472 | -83.68247 | 28058 ft | 439 kts | 248° |
| 2026-05-05 13:35 | 35.95893 | -83.75120 | 28053 ft | 439 kts | 248° |
| 2026-05-05 13:36 | 35.93324 | -83.81951 | 28054 ft | 438 kts | 248° |
| 2026-05-05 13:36 | 35.90761 | -83.88775 | 28054 ft | 438 kts | 249° |
| 2026-05-05 13:37 | 35.88386 | -83.95686 | 28055 ft | 438 kts | 249° |
| 2026-05-05 13:37 | 35.85998 | -84.02582 | 28047 ft | 438 kts | 249° |
| 2026-05-05 13:38 | 35.83602 | -84.09479 | 28047 ft | 438 kts | 249° |
| 2026-05-05 13:38 | 35.81203 | -84.16368 | 28045 ft | 438 kts | 249° |
| 2026-05-05 13:39 | 35.78797 | -84.23260 | 28057 ft | 437 kts | 249° |
| 2026-05-05 13:39 | 35.76393 | -84.30135 | 28055 ft | 437 kts | 249° |
| 2026-05-05 13:40 | 35.73980 | -84.37016 | 28054 ft | 437 kts | 249° |
| 2026-05-05 13:40 | 35.71570 | -84.43876 | 28055 ft | 437 kts | 250° |
| 2026-05-05 13:41 | 35.69159 | -84.50722 | 28053 ft | 436 kts | 250° |
| 2026-05-05 13:41 | 35.66745 | -84.57563 | 28055 ft | 436 kts | 250° |
| 2026-05-05 13:42 | 35.64332 | -84.64384 | 28053 ft | 435 kts | 250° |
| 2026-05-05 13:42 | 35.61900 | -84.71246 | 28053 ft | 434 kts | 250° |
| 2026-05-05 13:43 | 35.59485 | -84.78043 | 28057 ft | 434 kts | 250° |
| 2026-05-05 13:43 | 35.57066 | -84.84835 | 28054 ft | 433 kts | 250° |
| 2026-05-05 13:44 | 35.54648 | -84.91613 | 28047 ft | 433 kts | 250° |
| 2026-05-05 13:44 | 35.52227 | -84.98384 | 28046 ft | 432 kts | 250° |
| 2026-05-05 13:45 | 35.49807 | -85.05139 | 28045 ft | 432 kts | 250° |
| 2026-05-05 13:45 | 35.47384 | -85.11884 | 28047 ft | 432 kts | 251° |
| 2026-05-05 13:46 | 35.44959 | -85.18622 | 28049 ft | 431 kts | 251° |
| 2026-05-05 13:46 | 35.42942 | -85.24213 | 28047 ft | 431 kts | 251° |
| 2026-05-05 13:47 | 35.40516 | -85.30928 | 28048 ft | 431 kts | 251° |
| 2026-05-05 13:47 | 35.38088 | -85.37635 | 28043 ft | 430 kts | 251° |
| 2026-05-05 13:48 | 35.35645 | -85.44367 | 28049 ft | 429 kts | 251° |
| 2026-05-05 13:48 | 35.33210 | -85.51064 | 28034 ft | 431 kts | 251° |
| 2026-05-05 13:49 | 35.30767 | -85.57767 | 28037 ft | 430 kts | 251° |
| 2026-05-05 13:49 | 35.28327 | -85.64449 | 28038 ft | 430 kts | 251° |
| 2026-05-05 13:50 | 35.25883 | -85.71126 | 28035 ft | 430 kts | 251° |
| 2026-05-05 13:50 | 35.23439 | -85.77793 | 28035 ft | 429 kts | 251° |
| 2026-05-05 13:51 | 35.20992 | -85.84454 | 28040 ft | 430 kts | 251° |
| 2026-05-05 13:51 | 35.18533 | -85.91131 | 28035 ft | 430 kts | 251° |
| 2026-05-05 13:52 | 35.16077 | -85.97783 | 28038 ft | 429 kts | 251° |
| 2026-05-05 13:52 | 35.13616 | -86.04440 | 28037 ft | 429 kts | 251° |
| 2026-05-05 13:53 | 35.11161 | -86.11065 | 28036 ft | 428 kts | 251° |
| 2026-05-05 13:53 | 35.08704 | -86.17681 | 28036 ft | 428 kts | 251° |
| 2026-05-05 13:54 | 35.06236 | -86.24315 | 28034 ft | 429 kts | 251° |
| 2026-05-05 13:54 | 35.03768 | -86.30934 | 28038 ft | 429 kts | 251° |
| 2026-05-05 13:55 | 35.01281 | -86.37589 | 28034 ft | 428 kts | 251° |
| 2026-05-05 13:55 | 34.98806 | -86.44197 | 28035 ft | 428 kts | 251° |
| 2026-05-05 13:56 | 34.96327 | -86.50806 | 28035 ft | 429 kts | 251° |
| 2026-05-05 13:56 | 34.93845 | -86.57407 | 28037 ft | 428 kts | 251° |
| 2026-05-05 13:57 | 34.91360 | -86.64004 | 28036 ft | 428 kts | 251° |
| 2026-05-05 13:57 | 34.88872 | -86.70595 | 28036 ft | 428 kts | 251° |
| 2026-05-05 13:58 | 34.86388 | -86.77168 | 28037 ft | 428 kts | 251° |
| 2026-05-05 13:58 | 34.83883 | -86.83774 | 28029 ft | 428 kts | 251° |
| 2026-05-05 13:59 | 34.80131 | -86.93649 | 28027 ft | 428 kts | 251° |
| 2026-05-05 14:00 | 34.76371 | -87.03514 | 28026 ft | 428 kts | 251° |
| 2026-05-05 14:00 | 34.73860 | -87.10088 | 28031 ft | 429 kts | 251° |
| 2026-05-05 14:01 | 34.71339 | -87.16670 | 28028 ft | 429 kts | 251° |
| 2026-05-05 14:01 | 34.68817 | -87.23243 | 28027 ft | 429 kts | 251° |
| 2026-05-05 14:02 | 34.66289 | -87.29822 | 28036 ft | 429 kts | 251° |
| 2026-05-05 14:02 | 34.63757 | -87.36393 | 28036 ft | 429 kts | 251° |
| 2026-05-05 14:03 | 34.61227 | -87.42952 | 28040 ft | 430 kts | 251° |
| 2026-05-05 14:03 | 34.58673 | -87.49553 | 28033 ft | 429 kts | 251° |
| 2026-05-05 14:04 | 34.56127 | -87.56125 | 28026 ft | 431 kts | 251° |
| 2026-05-05 14:04 | 34.53575 | -87.62698 | 28024 ft | 430 kts | 251° |
| 2026-05-05 14:05 | 34.51021 | -87.69262 | 28019 ft | 431 kts | 251° |
| 2026-05-05 14:05 | 34.48460 | -87.75831 | 28025 ft | 431 kts | 251° |
| 2026-05-05 14:06 | 34.45897 | -87.82388 | 28023 ft | 430 kts | 251° |
| 2026-05-05 14:06 | 34.43330 | -87.88946 | 28017 ft | 430 kts | 251° |
| 2026-05-05 14:07 | 34.40764 | -87.95491 | 28015 ft | 431 kts | 251° |
| 2026-05-05 14:07 | 34.38185 | -88.02054 | 28009 ft | 431 kts | 251° |
| 2026-05-05 14:08 | 34.35607 | -88.08603 | 28009 ft | 431 kts | 251° |
| 2026-05-05 14:08 | 34.33021 | -88.15156 | 28012 ft | 431 kts | 251° |
| 2026-05-05 14:09 | 34.30431 | -88.21709 | 28001 ft | 432 kts | 251° |
| 2026-05-05 14:09 | 34.27839 | -88.28253 | 28003 ft | 431 kts | 251° |
| 2026-05-05 14:10 | 34.25247 | -88.34787 | 28013 ft | 431 kts | 251° |
| 2026-05-05 14:10 | 34.22633 | -88.41360 | 28008 ft | 431 kts | 251° |
| 2026-05-05 14:11 | 34.20039 | -88.47871 | 28006 ft | 430 kts | 251° |
| 2026-05-05 14:11 | 34.18743 | -88.51121 | 27996 ft | 430 kts | 251° |
| 2026-05-05 14:11 | 34.17444 | -88.54374 | 28000 ft | 430 kts | 251° |
| 2026-05-05 14:12 | 34.14848 | -88.60864 | 28002 ft | 429 kts | 251° |
| 2026-05-05 14:12 | 34.13551 | -88.64103 | 28000 ft | 429 kts | 251° |
| 2026-05-05 14:12 | 34.12255 | -88.67338 | 28000 ft | 429 kts | 251° |
| 2026-05-05 14:13 | 34.10955 | -88.70576 | 28000 ft | 429 kts | 251° |
| 2026-05-05 14:13 | 34.09654 | -88.73814 | 28002 ft | 428 kts | 251° |
| 2026-05-05 14:13 | 34.08354 | -88.77049 | 28000 ft | 428 kts | 251° |
| 2026-05-05 14:13 | 34.07056 | -88.80275 | 28001 ft | 428 kts | 251° |
| 2026-05-05 14:14 | 34.05758 | -88.83498 | 28000 ft | 427 kts | 250° |
| 2026-05-05 14:14 | 34.04459 | -88.86722 | 27994 ft | 427 kts | 250° |
| 2026-05-05 14:14 | 34.01863 | -88.93150 | 28014 ft | 426 kts | 250° |
| 2026-05-05 14:15 | 33.99267 | -88.99565 | 28011 ft | 426 kts | 250° |
| 2026-05-05 14:15 | 33.96667 | -89.05982 | 28015 ft | 427 kts | 251° |
| 2026-05-05 14:16 | 33.94064 | -89.12393 | 27993 ft | 426 kts | 251° |
| 2026-05-05 14:16 | 33.92762 | -89.15595 | 27993 ft | 425 kts | 251° |
| 2026-05-05 14:16 | 33.91461 | -89.18791 | 27989 ft | 425 kts | 251° |
| 2026-05-05 14:17 | 33.90158 | -89.21990 | 27989 ft | 425 kts | 251° |
| 2026-05-05 14:17 | 33.88857 | -89.25180 | 27987 ft | 425 kts | 251° |
| 2026-05-05 14:17 | 33.87553 | -89.28374 | 27988 ft | 425 kts | 251° |
| 2026-05-05 14:17 | 33.86250 | -89.31564 | 27989 ft | 424 kts | 251° |
| 2026-05-05 14:18 | 33.84947 | -89.34752 | 27989 ft | 424 kts | 251° |
| 2026-05-05 14:18 | 33.83629 | -89.37970 | 27987 ft | 424 kts | 251° |
| 2026-05-05 14:18 | 33.82326 | -89.41149 | 27988 ft | 424 kts | 251° |
| 2026-05-05 14:18 | 33.81023 | -89.44328 | 27984 ft | 424 kts | 250° |
| 2026-05-05 14:19 | 33.79718 | -89.47507 | 27985 ft | 423 kts | 251° |
| 2026-05-05 14:19 | 33.78855 | -89.49606 | 27981 ft | 423 kts | 251° |
| 2026-05-05 14:19 | 33.77548 | -89.52786 | 27979 ft | 424 kts | 251° |
| 2026-05-05 14:19 | 33.76245 | -89.55953 | 27977 ft | 423 kts | 250° |
| 2026-05-05 14:20 | 33.74939 | -89.59123 | 27976 ft | 422 kts | 250° |
| 2026-05-05 14:20 | 33.73637 | -89.62282 | 27976 ft | 422 kts | 251° |
| 2026-05-05 14:20 | 33.72332 | -89.65448 | 27977 ft | 423 kts | 250° |
| 2026-05-05 14:20 | 33.71026 | -89.68609 | 27970 ft | 422 kts | 251° |
| 2026-05-05 14:21 | 33.69724 | -89.71762 | 27973 ft | 422 kts | 250° |
| 2026-05-05 14:21 | 33.68416 | -89.74926 | 27969 ft | 422 kts | 250° |
| 2026-05-05 14:21 | 33.67109 | -89.78083 | 27967 ft | 422 kts | 250° |
| 2026-05-05 14:21 | 33.65801 | -89.81241 | 27963 ft | 422 kts | 250° |
| 2026-05-05 14:22 | 33.64495 | -89.84390 | 27965 ft | 422 kts | 250° |
| 2026-05-05 14:22 | 33.63188 | -89.87540 | 27965 ft | 422 kts | 250° |
| 2026-05-05 14:22 | 33.61881 | -89.90688 | 27959 ft | 422 kts | 250° |
| 2026-05-05 14:22 | 33.60571 | -89.93839 | 27961 ft | 422 kts | 250° |
| 2026-05-05 14:23 | 33.59260 | -89.96990 | 27960 ft | 422 kts | 250° |
| 2026-05-05 14:23 | 33.57950 | -90.00134 | 27954 ft | 422 kts | 250° |
| 2026-05-05 14:23 | 33.56641 | -90.03275 | 27955 ft | 421 kts | 250° |
| 2026-05-05 14:23 | 33.55328 | -90.06421 | 27953 ft | 422 kts | 250° |
| 2026-05-05 14:24 | 33.54001 | -90.09600 | 27952 ft | 422 kts | 250° |
| 2026-05-05 14:24 | 33.52687 | -90.12744 | 27952 ft | 422 kts | 250° |
| 2026-05-05 14:24 | 33.51371 | -90.15890 | 27950 ft | 422 kts | 250° |
| 2026-05-05 14:24 | 33.50057 | -90.19030 | 27952 ft | 422 kts | 250° |
| 2026-05-05 14:25 | 33.48740 | -90.22170 | 27953 ft | 422 kts | 250° |
| 2026-05-05 14:25 | 33.47421 | -90.25314 | 27954 ft | 422 kts | 250° |
| 2026-05-05 14:25 | 33.46126 | -90.28464 | 27950 ft | 423 kts | 249° |
| 2026-05-05 14:25 | 33.44404 | -90.31368 | 27958 ft | 434 kts | 238° |
| 2026-05-05 14:26 | 33.42560 | -90.34198 | 27946 ft | 431 kts | 241° |
| 2026-05-05 14:26 | 33.40772 | -90.37101 | 27945 ft | 431 kts | 241° |
| 2026-05-05 14:26 | 33.39007 | -90.39998 | 27944 ft | 431 kts | 242° |
| 2026-05-05 14:26 | 33.37247 | -90.42904 | 27943 ft | 431 kts | 242° |
| 2026-05-05 14:27 | 33.35488 | -90.45812 | 27942 ft | 432 kts | 242° |
| 2026-05-05 14:27 | 33.33726 | -90.48726 | 27943 ft | 431 kts | 242° |
| 2026-05-05 14:27 | 33.31969 | -90.51629 | 27942 ft | 431 kts | 242° |
| 2026-05-05 14:27 | 33.30212 | -90.54532 | 27944 ft | 432 kts | 242° |
| 2026-05-05 14:28 | 33.28449 | -90.57441 | 27943 ft | 432 kts | 242° |
| 2026-05-05 14:28 | 33.26687 | -90.60345 | 27941 ft | 432 kts | 241° |
| 2026-05-05 14:28 | 33.24925 | -90.63248 | 27935 ft | 431 kts | 242° |
| 2026-05-05 14:28 | 33.23163 | -90.66149 | 27934 ft | 431 kts | 242° |
| 2026-05-05 14:29 | 33.21401 | -90.69048 | 27931 ft | 431 kts | 241° |
| 2026-05-05 14:29 | 33.19642 | -90.71939 | 27934 ft | 432 kts | 241° |
| 2026-05-05 14:29 | 33.17876 | -90.74839 | 27940 ft | 432 kts | 241° |
| 2026-05-05 14:29 | 33.16109 | -90.77740 | 27936 ft | 432 kts | 241° |
| 2026-05-05 14:30 | 33.14338 | -90.80643 | 27930 ft | 433 kts | 241° |
| 2026-05-05 14:30 | 33.12565 | -90.83549 | 27929 ft | 433 kts | 241° |
| 2026-05-05 14:30 | 33.10794 | -90.86448 | 27921 ft | 433 kts | 241° |
| 2026-05-05 14:30 | 33.09017 | -90.89354 | 27940 ft | 432 kts | 241° |
| 2026-05-05 14:31 | 33.07248 | -90.92246 | 27937 ft | 432 kts | 241° |
| 2026-05-05 14:31 | 33.05478 | -90.95139 | 27938 ft | 432 kts | 241° |
| 2026-05-05 14:31 | 33.03711 | -90.98022 | 27929 ft | 432 kts | 241° |
| 2026-05-05 14:31 | 33.01913 | -91.00955 | 27928 ft | 432 kts | 241° |
| 2026-05-05 14:32 | 33.00145 | -91.03835 | 27937 ft | 432 kts | 241° |
| 2026-05-05 14:32 | 32.98372 | -91.06723 | 27931 ft | 432 kts | 241° |
| 2026-05-05 14:32 | 32.96596 | -91.09612 | 27928 ft | 432 kts | 241° |
| 2026-05-05 14:32 | 32.94823 | -91.12495 | 27936 ft | 432 kts | 241° |
| 2026-05-05 14:33 | 32.93044 | -91.15385 | 27931 ft | 432 kts | 241° |
| 2026-05-05 14:33 | 32.91267 | -91.18271 | 27933 ft | 432 kts | 241° |
| 2026-05-05 14:33 | 32.89490 | -91.21152 | 27936 ft | 432 kts | 241° |
| 2026-05-05 14:33 | 32.87712 | -91.24035 | 27935 ft | 433 kts | 241° |
| 2026-05-05 14:34 | 32.85930 | -91.26920 | 27930 ft | 432 kts | 241° |
| 2026-05-05 14:34 | 32.84150 | -91.29800 | 27930 ft | 432 kts | 241° |
| 2026-05-05 14:34 | 32.82370 | -91.32679 | 27934 ft | 432 kts | 241° |
| 2026-05-05 14:34 | 32.80589 | -91.35556 | 27931 ft | 432 kts | 241° |
| 2026-05-05 14:35 | 32.78808 | -91.38433 | 27931 ft | 432 kts | 241° |
| 2026-05-05 14:35 | 32.77022 | -91.41314 | 27936 ft | 432 kts | 241° |
| 2026-05-05 14:35 | 32.75237 | -91.44191 | 27942 ft | 432 kts | 241° |
| 2026-05-05 14:35 | 32.73454 | -91.47063 | 27932 ft | 433 kts | 241° |
| 2026-05-05 14:36 | 32.71665 | -91.49943 | 27934 ft | 433 kts | 241° |
| 2026-05-05 14:36 | 32.69881 | -91.52812 | 27931 ft | 433 kts | 241° |
| 2026-05-05 14:36 | 32.68093 | -91.55686 | 27940 ft | 433 kts | 241° |
| 2026-05-05 14:36 | 32.66304 | -91.58558 | 27936 ft | 433 kts | 241° |
| 2026-05-05 14:37 | 32.64518 | -91.61424 | 27932 ft | 432 kts | 241° |
| 2026-05-05 14:37 | 32.62727 | -91.64296 | 27931 ft | 432 kts | 241° |
| 2026-05-05 14:37 | 32.60942 | -91.67156 | 27936 ft | 432 kts | 241° |
| 2026-05-05 14:37 | 32.59156 | -91.70016 | 27933 ft | 432 kts | 241° |
| 2026-05-05 14:38 | 32.57367 | -91.72878 | 27939 ft | 432 kts | 241° |
| 2026-05-05 14:38 | 32.55577 | -91.75740 | 27935 ft | 433 kts | 241° |
| 2026-05-05 14:38 | 32.53778 | -91.78612 | 27931 ft | 433 kts | 241° |
| 2026-05-05 14:38 | 32.51985 | -91.81474 | 27932 ft | 433 kts | 241° |
| 2026-05-05 14:39 | 32.50185 | -91.84345 | 27934 ft | 433 kts | 241° |
| 2026-05-05 14:39 | 32.48390 | -91.87206 | 27924 ft | 433 kts | 241° |
| 2026-05-05 14:39 | 32.46565 | -91.90112 | 27929 ft | 433 kts | 241° |
| 2026-05-05 14:39 | 32.44769 | -91.92970 | 27920 ft | 433 kts | 241° |
| 2026-05-05 14:40 | 32.42967 | -91.95835 | 27927 ft | 433 kts | 240° |
| 2026-05-05 14:40 | 32.41167 | -91.98695 | 27921 ft | 433 kts | 240° |
| 2026-05-05 14:40 | 32.39370 | -92.01548 | 27919 ft | 432 kts | 241° |
| 2026-05-05 14:40 | 32.37577 | -92.04392 | 27922 ft | 432 kts | 241° |
| 2026-05-05 14:41 | 32.35777 | -92.07248 | 27930 ft | 432 kts | 241° |
| 2026-05-05 14:41 | 32.33982 | -92.10090 | 27927 ft | 432 kts | 241° |
| 2026-05-05 14:41 | 32.32180 | -92.12942 | 27926 ft | 432 kts | 241° |
| 2026-05-05 14:41 | 32.30382 | -92.15786 | 27927 ft | 432 kts | 240° |
| 2026-05-05 14:42 | 32.28580 | -92.18633 | 27932 ft | 432 kts | 240° |
| 2026-05-05 14:42 | 32.26780 | -92.21476 | 27931 ft | 432 kts | 240° |
| 2026-05-05 14:42 | 32.24979 | -92.24318 | 27914 ft | 432 kts | 240° |
| 2026-05-05 14:42 | 32.23177 | -92.27161 | 27917 ft | 432 kts | 240° |
| 2026-05-05 14:43 | 32.21373 | -92.30003 | 27909 ft | 432 kts | 240° |
| 2026-05-05 14:43 | 32.19570 | -92.32843 | 27911 ft | 432 kts | 240° |
| 2026-05-05 14:43 | 32.17763 | -92.35686 | 27912 ft | 432 kts | 240° |
| 2026-05-05 14:43 | 32.15958 | -92.38523 | 27911 ft | 432 kts | 240° |
| 2026-05-05 14:44 | 32.14154 | -92.41358 | 27916 ft | 432 kts | 240° |
| 2026-05-05 14:44 | 32.12345 | -92.44197 | 27911 ft | 432 kts | 240° |
| 2026-05-05 14:44 | 32.10537 | -92.47034 | 27922 ft | 432 kts | 240° |
| 2026-05-05 14:44 | 32.08732 | -92.49865 | 27911 ft | 432 kts | 240° |
| 2026-05-05 14:45 | 32.06925 | -92.52695 | 27923 ft | 432 kts | 240° |
| 2026-05-05 14:45 | 32.05113 | -92.55534 | 27911 ft | 432 kts | 240° |
| 2026-05-05 14:45 | 32.03303 | -92.58366 | 27912 ft | 433 kts | 240° |
| 2026-05-05 14:45 | 32.01496 | -92.61191 | 27912 ft | 432 kts | 240° |
| 2026-05-05 14:46 | 31.99682 | -92.64025 | 27912 ft | 433 kts | 240° |
| 2026-05-05 14:46 | 31.97867 | -92.66855 | 27901 ft | 433 kts | 240° |
| 2026-05-05 14:46 | 31.96031 | -92.69663 | 27904 ft | 432 kts | 240° |
| 2026-05-05 14:46 | 31.94173 | -92.72504 | 27917 ft | 432 kts | 240° |
| 2026-05-05 14:47 | 31.92365 | -92.75268 | 27916 ft | 432 kts | 240° |
| 2026-05-05 14:47 | 31.90512 | -92.78102 | 27911 ft | 432 kts | 240° |
| 2026-05-05 14:47 | 31.88681 | -92.80900 | 27922 ft | 432 kts | 240° |
| 2026-05-05 14:47 | 31.86846 | -92.83703 | 27908 ft | 432 kts | 240° |
| 2026-05-05 14:48 | 31.85017 | -92.86494 | 27919 ft | 432 kts | 240° |
| 2026-05-05 14:48 | 31.83182 | -92.89293 | 27911 ft | 432 kts | 240° |
| 2026-05-05 14:48 | 31.81345 | -92.92091 | 27922 ft | 432 kts | 240° |
| 2026-05-05 14:48 | 31.79510 | -92.94886 | 27919 ft | 432 kts | 240° |
| 2026-05-05 14:49 | 31.77673 | -92.97682 | 27918 ft | 432 kts | 240° |
| 2026-05-05 14:49 | 31.75833 | -93.00479 | 27910 ft | 432 kts | 240° |
| 2026-05-05 14:49 | 31.73999 | -93.03265 | 27910 ft | 432 kts | 240° |
| 2026-05-05 14:49 | 31.72162 | -93.06054 | 27910 ft | 432 kts | 240° |
| 2026-05-05 14:50 | 31.70322 | -93.08846 | 27921 ft | 432 kts | 240° |
| 2026-05-05 14:50 | 31.68481 | -93.11637 | 27923 ft | 432 kts | 240° |
| 2026-05-05 14:50 | 31.66643 | -93.14421 | 27913 ft | 432 kts | 240° |
| 2026-05-05 14:50 | 31.64804 | -93.17206 | 27920 ft | 431 kts | 240° |
| 2026-05-05 14:51 | 31.62967 | -93.19985 | 27915 ft | 431 kts | 240° |
| 2026-05-05 14:51 | 31.61128 | -93.22766 | 27916 ft | 431 kts | 240° |
| 2026-05-05 14:51 | 31.59290 | -93.25542 | 27911 ft | 431 kts | 240° |
| 2026-05-05 14:51 | 31.57453 | -93.28315 | 27923 ft | 431 kts | 240° |
| 2026-05-05 14:52 | 31.55616 | -93.31086 | 27912 ft | 431 kts | 240° |
| 2026-05-05 14:52 | 31.53778 | -93.33856 | 27919 ft | 431 kts | 240° |
| 2026-05-05 14:52 | 31.51939 | -93.36626 | 27916 ft | 431 kts | 240° |
| 2026-05-05 14:52 | 31.50098 | -93.39397 | 27911 ft | 431 kts | 240° |
| 2026-05-05 14:53 | 31.48853 | -93.41270 | 27922 ft | 430 kts | 240° |
| 2026-05-05 14:53 | 31.47010 | -93.44040 | 27911 ft | 431 kts | 239° |
| 2026-05-05 14:53 | 31.45171 | -93.46804 | 27916 ft | 431 kts | 239° |
| 2026-05-05 14:53 | 31.43329 | -93.49569 | 27920 ft | 431 kts | 239° |
| 2026-05-05 14:54 | 31.41484 | -93.52336 | 27909 ft | 431 kts | 239° |
| 2026-05-05 14:54 | 31.39639 | -93.55103 | 27926 ft | 431 kts | 239° |
| 2026-05-05 14:54 | 31.37797 | -93.57861 | 27911 ft | 431 kts | 239° |
| 2026-05-05 14:54 | 31.35949 | -93.60628 | 27916 ft | 431 kts | 239° |
| 2026-05-05 14:55 | 31.34107 | -93.63384 | 27918 ft | 431 kts | 239° |
| 2026-05-05 14:55 | 31.32261 | -93.66143 | 27911 ft | 431 kts | 239° |
| 2026-05-05 14:55 | 31.30408 | -93.68911 | 27914 ft | 431 kts | 239° |
| 2026-05-05 14:55 | 31.28558 | -93.71672 | 27921 ft | 431 kts | 239° |
| 2026-05-05 14:56 | 31.26706 | -93.74435 | 27917 ft | 432 kts | 239° |
| 2026-05-05 14:56 | 31.24854 | -93.77196 | 27916 ft | 432 kts | 239° |
| 2026-05-05 14:56 | 31.23002 | -93.79953 | 27901 ft | 431 kts | 239° |
| 2026-05-05 14:56 | 31.21154 | -93.82705 | 27914 ft | 431 kts | 239° |
| 2026-05-05 14:57 | 31.19300 | -93.85462 | 27918 ft | 431 kts | 239° |
| 2026-05-05 14:57 | 31.17452 | -93.88209 | 27911 ft | 431 kts | 239° |
| 2026-05-05 14:57 | 31.15599 | -93.90962 | 27912 ft | 432 kts | 239° |
| 2026-05-05 14:57 | 31.13740 | -93.93721 | 27920 ft | 432 kts | 239° |
| 2026-05-05 14:58 | 31.11878 | -93.96482 | 27913 ft | 433 kts | 239° |
| 2026-05-05 14:58 | 31.10018 | -93.99239 | 27902 ft | 432 kts | 239° |
| 2026-05-05 14:58 | 31.08163 | -94.01987 | 27913 ft | 432 kts | 239° |
| 2026-05-05 14:58 | 31.06308 | -94.04731 | 27902 ft | 430 kts | 239° |
| 2026-05-05 14:59 | 31.04459 | -94.07467 | 27903 ft | 429 kts | 239° |
| 2026-05-05 14:59 | 31.02583 | -94.10239 | 27901 ft | 429 kts | 239° |
| 2026-05-05 14:59 | 31.00756 | -94.12937 | 27913 ft | 429 kts | 239° |
| 2026-05-05 14:59 | 30.98883 | -94.15702 | 27917 ft | 430 kts | 239° |
| 2026-05-05 15:00 | 30.97027 | -94.18440 | 27898 ft | 430 kts | 239° |
| 2026-05-05 15:00 | 30.95799 | -94.20251 | 27921 ft | 430 kts | 239° |
| 2026-05-05 15:00 | 30.93320 | -94.23901 | 27915 ft | 430 kts | 239° |
| 2026-05-05 15:00 | 30.91462 | -94.26635 | 27902 ft | 430 kts | 239° |
| 2026-05-05 15:01 | 30.89603 | -94.29370 | 27911 ft | 430 kts | 239° |
| 2026-05-05 15:01 | 30.87746 | -94.32100 | 27916 ft | 430 kts | 239° |
| 2026-05-05 15:01 | 30.85885 | -94.34833 | 27903 ft | 431 kts | 239° |
| 2026-05-05 15:01 | 30.84023 | -94.37565 | 27912 ft | 431 kts | 239° |
| 2026-05-05 15:02 | 30.82163 | -94.40293 | 27904 ft | 430 kts | 239° |
| 2026-05-05 15:02 | 30.80304 | -94.43017 | 27901 ft | 430 kts | 239° |
| 2026-05-05 15:02 | 30.78441 | -94.45746 | 27914 ft | 431 kts | 239° |
| 2026-05-05 15:02 | 30.76580 | -94.48471 | 27906 ft | 431 kts | 239° |
| 2026-05-05 15:03 | 30.74717 | -94.51195 | 27901 ft | 431 kts | 239° |
| 2026-05-05 15:03 | 30.72849 | -94.53925 | 27901 ft | 431 kts | 239° |
| 2026-05-05 15:03 | 30.70987 | -94.56646 | 27901 ft | 431 kts | 239° |
| 2026-05-05 15:03 | 30.69116 | -94.59375 | 27912 ft | 429 kts | 239° |
| 2026-05-05 15:04 | 30.67262 | -94.62079 | 27902 ft | 429 kts | 239° |
| 2026-05-05 15:04 | 30.65407 | -94.64783 | 27911 ft | 428 kts | 239° |
| 2026-05-05 15:04 | 30.63551 | -94.67486 | 27908 ft | 428 kts | 239° |
| 2026-05-05 15:04 | 30.61696 | -94.70187 | 27914 ft | 428 kts | 239° |
| 2026-05-05 15:05 | 30.57986 | -94.75581 | 27901 ft | 428 kts | 239° |
| 2026-05-05 15:05 | 30.56129 | -94.78279 | 27917 ft | 428 kts | 239° |
| 2026-05-05 15:05 | 30.54272 | -94.80974 | 27901 ft | 428 kts | 239° |
| 2026-05-05 15:06 | 30.52416 | -94.83667 | 27917 ft | 428 kts | 239° |
| 2026-05-05 15:06 | 30.50562 | -94.86355 | 27900 ft | 427 kts | 239° |
| 2026-05-05 15:06 | 30.48701 | -94.89051 | 27914 ft | 428 kts | 238° |
| 2026-05-05 15:06 | 30.46839 | -94.91746 | 27918 ft | 428 kts | 238° |
| 2026-05-05 15:07 | 30.44957 | -94.94468 | 27914 ft | 427 kts | 238° |
| 2026-05-05 15:07 | 30.43099 | -94.97155 | 27915 ft | 427 kts | 238° |
| 2026-05-05 15:07 | 30.41244 | -94.99835 | 27909 ft | 427 kts | 238° |
| 2026-05-05 15:07 | 30.39382 | -95.02522 | 27913 ft | 427 kts | 238° |
| 2026-05-05 15:08 | 30.37526 | -95.05201 | 27918 ft | 427 kts | 238° |
| 2026-05-05 15:08 | 30.35665 | -95.07883 | 27915 ft | 427 kts | 238° |
| 2026-05-05 15:08 | 30.33807 | -95.10562 | 27920 ft | 427 kts | 238° |
| 2026-05-05 15:08 | 30.31939 | -95.13250 | 27912 ft | 427 kts | 238° |
| 2026-05-05 15:09 | 30.30077 | -95.15930 | 27915 ft | 426 kts | 238° |
| 2026-05-05 15:09 | 30.28222 | -95.18596 | 27909 ft | 426 kts | 238° |
| 2026-05-05 15:09 | 30.26363 | -95.21268 | 27903 ft | 426 kts | 238° |
| 2026-05-05 15:09 | 30.24502 | -95.23940 | 27902 ft | 427 kts | 238° |
| 2026-05-05 15:10 | 30.22637 | -95.26616 | 27901 ft | 427 kts | 238° |
| 2026-05-05 15:10 | 30.20779 | -95.29282 | 27914 ft | 426 kts | 238° |
| 2026-05-05 15:10 | 30.18920 | -95.31945 | 27902 ft | 426 kts | 238° |
| 2026-05-05 15:10 | 30.17059 | -95.34611 | 27901 ft | 426 kts | 238° |
| 2026-05-05 15:11 | 30.15196 | -95.37277 | 27901 ft | 426 kts | 238° |
| 2026-05-05 15:11 | 30.13331 | -95.39944 | 27898 ft | 427 kts | 238° |
| 2026-05-05 15:11 | 30.11467 | -95.42609 | 27898 ft | 427 kts | 238° |
| 2026-05-05 15:11 | 30.09603 | -95.45270 | 27899 ft | 426 kts | 238° |
| 2026-05-05 15:12 | 30.07740 | -95.47930 | 27895 ft | 426 kts | 238° |
| 2026-05-05 15:12 | 30.05877 | -95.50589 | 27897 ft | 426 kts | 238° |
| 2026-05-05 15:12 | 30.04008 | -95.53253 | 27898 ft | 426 kts | 238° |
| 2026-05-05 15:12 | 30.02141 | -95.55915 | 27897 ft | 427 kts | 238° |
| 2026-05-05 15:13 | 30.00277 | -95.58570 | 27896 ft | 427 kts | 238° |
| 2026-05-05 15:13 | 29.98409 | -95.61229 | 27896 ft | 427 kts | 238° |
| 2026-05-05 15:13 | 29.96537 | -95.63891 | 27897 ft | 427 kts | 237° |
| 2026-05-05 15:13 | 29.94665 | -95.66551 | 27896 ft | 427 kts | 237° |
| 2026-05-05 15:14 | 29.92797 | -95.69204 | 27897 ft | 426 kts | 237° |
| 2026-05-05 15:14 | 29.90929 | -95.71857 | 27897 ft | 427 kts | 237° |
| 2026-05-05 15:14 | 29.89030 | -95.74550 | 27897 ft | 427 kts | 237° |
| 2026-05-05 15:14 | 29.87283 | -95.77227 | 27887 ft | 419 kts | 245° |
| 2026-05-05 15:15 | 29.86180 | -95.80323 | 27908 ft | 410 kts | 258° |
| 2026-05-05 15:15 | 29.85427 | -95.83492 | 27902 ft | 410 kts | 258° |
| 2026-05-05 15:15 | 29.84702 | -95.86674 | 27902 ft | 409 kts | 259° |
| 2026-05-05 15:15 | 29.84001 | -95.89844 | 27916 ft | 409 kts | 259° |
| 2026-05-05 15:16 | 29.83312 | -95.93026 | 27902 ft | 409 kts | 259° |
| 2026-05-05 15:16 | 29.82629 | -95.96207 | 27916 ft | 409 kts | 260° |
| 2026-05-05 15:16 | 29.81950 | -95.99385 | 27907 ft | 409 kts | 260° |
| 2026-05-05 15:16 | 29.81270 | -96.02569 | 27902 ft | 409 kts | 260° |
| 2026-05-05 15:17 | 29.80592 | -96.05740 | 27902 ft | 409 kts | 260° |
| 2026-05-05 15:17 | 29.79911 | -96.08921 | 27913 ft | 409 kts | 260° |
| 2026-05-05 15:17 | 29.79230 | -96.12095 | 27898 ft | 409 kts | 259° |
| 2026-05-05 15:17 | 29.78548 | -96.15273 | 27785 ft | 409 kts | 259° |
| 2026-05-05 15:18 | 29.78089 | -96.18478 | 27547 ft | 405 kts | 271° |
| 2026-05-05 15:18 | 29.78267 | -96.21713 | 27345 ft | 405 kts | 275° |
| 2026-05-05 15:18 | 29.78471 | -96.24947 | 27129 ft | 406 kts | 275° |
| 2026-05-05 15:18 | 29.78693 | -96.28197 | 26915 ft | 407 kts | 275° |
| 2026-05-05 15:19 | 29.78926 | -96.31440 | 26700 ft | 407 kts | 276° |
| 2026-05-05 15:19 | 29.79165 | -96.34677 | 25981 ft | 404 kts | 276° |
| 2026-05-05 15:19 | 29.79405 | -96.37913 | 25009 ft | 405 kts | 276° |
| 2026-05-05 15:19 | 29.79643 | -96.41119 | 24247 ft | 400 kts | 276° |
| 2026-05-05 15:20 | 29.79879 | -96.44297 | 23505 ft | 396 kts | 276° |
| 2026-05-05 15:20 | 29.80111 | -96.47438 | 22775 ft | 391 kts | 276° |
| 2026-05-05 15:20 | 29.80339 | -96.50545 | 22052 ft | 387 kts | 275° |
| 2026-05-05 15:20 | 29.80574 | -96.53618 | 21327 ft | 384 kts | 277° |
| 2026-05-05 15:21 | 29.81279 | -96.56573 | 20457 ft | 386 kts | 293° |
| 2026-05-05 15:21 | 29.82738 | -96.59151 | 19787 ft | 386 kts | 307° |
| 2026-05-05 15:21 | 29.84487 | -96.61477 | 19220 ft | 381 kts | 308° |
| 2026-05-05 15:21 | 29.86245 | -96.63745 | 18598 ft | 378 kts | 309° |
| 2026-05-05 15:22 | 29.88034 | -96.66010 | 17933 ft | 380 kts | 309° |
| 2026-05-05 15:22 | 29.89832 | -96.68262 | 17272 ft | 384 kts | 310° |
| 2026-05-05 15:22 | 29.91628 | -96.70496 | 16638 ft | 385 kts | 310° |
| 2026-05-05 15:22 | 29.93471 | -96.72782 | 15990 ft | 383 kts | 310° |
| 2026-05-05 15:23 | 29.95283 | -96.75029 | 15351 ft | 381 kts | 310° |
| 2026-05-05 15:23 | 29.97077 | -96.77255 | 14984 ft | 376 kts | 310° |
| 2026-05-05 15:23 | 29.98833 | -96.79436 | 14699 ft | 364 kts | 310° |
| 2026-05-05 15:23 | 30.00496 | -96.81500 | 14480 ft | 338 kts | 310° |
| 2026-05-05 15:24 | 30.02057 | -96.83440 | 14311 ft | 324 kts | 309° |
| 2026-05-05 15:24 | 30.03566 | -96.85315 | 14121 ft | 314 kts | 310° |
| 2026-05-05 15:24 | 30.04869 | -96.87269 | 13821 ft | 305 kts | 294° |
| 2026-05-05 15:24 | 30.05386 | -96.88782 | 13620 ft | 308 kts | 288° |
| 2026-05-05 15:25 | 30.06128 | -96.91124 | 13313 ft | 313 kts | 289° |
| 2026-05-05 15:25 | 30.06872 | -96.93507 | 12986 ft | 317 kts | 288° |
| 2026-05-05 15:25 | 30.07599 | -96.95873 | 12648 ft | 306 kts | 288° |
| 2026-05-05 15:25 | 30.08286 | -96.98134 | 12332 ft | 290 kts | 288° |
| 2026-05-05 15:26 | 30.08933 | -97.00277 | 12031 ft | 280 kts | 288° |
| 2026-05-05 15:26 | 30.09569 | -97.02390 | 11704 ft | 277 kts | 288° |
| 2026-05-05 15:26 | 30.10196 | -97.04478 | 11409 ft | 273 kts | 288° |
| 2026-05-05 15:26 | 30.10815 | -97.06541 | 11115 ft | 271 kts | 287° |
| 2026-05-05 15:27 | 30.11428 | -97.08584 | 10795 ft | 268 kts | 287° |
| 2026-05-05 15:27 | 30.12044 | -97.10642 | 10476 ft | 266 kts | 287° |
| 2026-05-05 15:27 | 30.12650 | -97.12664 | 10189 ft | 268 kts | 287° |
| 2026-05-05 15:27 | 30.13260 | -97.14706 | 9899 ft | 270 kts | 286° |
| 2026-05-05 15:28 | 30.13873 | -97.16757 | 9595 ft | 271 kts | 286° |
| 2026-05-05 15:28 | 30.14485 | -97.18804 | 9334 ft | 267 kts | 286° |
| 2026-05-05 15:28 | 30.14939 | -97.20324 | 9169 ft | 263 kts | 285° |
| 2026-05-05 15:28 | 30.15533 | -97.22315 | 8897 ft | 260 kts | 285° |
| 2026-05-05 15:29 | 30.16120 | -97.24281 | 8630 ft | 258 kts | 285° |
| 2026-05-05 15:29 | 30.16709 | -97.26256 | 8344 ft | 262 kts | 285° |
| 2026-05-05 15:29 | 30.17315 | -97.28264 | 8031 ft | 267 kts | 287° |
| 2026-05-05 15:29 | 30.18045 | -97.30251 | 7709 ft | 269 kts | 289° |
| 2026-05-05 15:30 | 30.18784 | -97.32235 | 7421 ft | 267 kts | 289° |
| 2026-05-05 15:30 | 30.19510 | -97.34205 | 7121 ft | 265 kts | 288° |
| 2026-05-05 15:30 | 30.20226 | -97.36156 | 6824 ft | 263 kts | 288° |
| 2026-05-05 15:30 | 30.20937 | -97.38100 | 6517 ft | 261 kts | 288° |
| 2026-05-05 15:31 | 30.21676 | -97.40009 | 6197 ft | 260 kts | 290° |
| 2026-05-05 15:31 | 30.22438 | -97.41885 | 5859 ft | 253 kts | 289° |
| 2026-05-05 15:31 | 30.23170 | -97.43705 | 5585 ft | 249 kts | 289° |
| 2026-05-05 15:31 | 30.23896 | -97.45513 | 5303 ft | 247 kts | 289° |
| 2026-05-05 15:32 | 30.24615 | -97.47306 | 5026 ft | 245 kts | 289° |
| 2026-05-05 15:32 | 30.25323 | -97.49074 | 4740 ft | 238 kts | 289° |
| 2026-05-05 15:32 | 30.26007 | -97.50779 | 4471 ft | 229 kts | 289° |
| 2026-05-05 15:32 | 30.26665 | -97.52427 | 4220 ft | 225 kts | 289° |
| 2026-05-05 15:33 | 30.27390 | -97.54044 | 4063 ft | 230 kts | 302° |
| 2026-05-05 15:33 | 30.28563 | -97.55371 | 4060 ft | 235 kts | 312° |
| 2026-05-05 15:33 | 30.29803 | -97.56571 | 4038 ft | 238 kts | 324° |
| 2026-05-05 15:33 | 30.31417 | -97.57146 | 4026 ft | 245 kts | 352° |
| 2026-05-05 15:34 | 30.33065 | -97.57231 | 4050 ft | 233 kts | 354° |
| 2026-05-05 15:34 | 30.34641 | -97.57472 | 3954 ft | 219 kts | 334° |
| 2026-05-05 15:34 | 30.35830 | -97.58375 | 3841 ft | 195 kts | 304° |
| 2026-05-05 15:34 | 30.36479 | -97.59694 | 3754 ft | 182 kts | 279° |
| 2026-05-05 15:35 | 30.36583 | -97.61069 | 3489 ft | 167 kts | 256° |
| 2026-05-05 15:35 | 30.36224 | -97.62320 | 3124 ft | 163 kts | 235° |
| 2026-05-05 15:35 | 30.35552 | -97.63336 | 2797 ft | 158 kts | 223° |
| 2026-05-05 15:35 | 30.34801 | -97.64267 | 2572 ft | 157 kts | 220° |
| 2026-05-05 15:36 | 30.34007 | -97.65187 | 2718 ft | 165 kts | 220° |
| 2026-05-05 15:36 | 30.33339 | -97.66270 | 2784 ft | 163 kts | 243° |
| 2026-05-05 15:36 | 30.32855 | -97.67384 | 2811 ft | 149 kts | 225° |
| 2026-05-05 15:36 | 30.31978 | -97.67949 | 2625 ft | 143 kts | 198° |
| 2026-05-05 15:37 | 30.31005 | -97.68168 | 2449 ft | 143 kts | 186° |
| 2026-05-05 15:37 | 30.30009 | -97.68176 | 2254 ft | 144 kts | 180° |
| 2026-05-05 15:37 | 30.29008 | -97.68141 | 2074 ft | 141 kts | 180° |
| 2026-05-05 15:37 | 30.28046 | -97.68113 | 1891 ft | 136 kts | 180° |
| 2026-05-05 15:38 | 30.27102 | -97.68088 | 1708 ft | 137 kts | 179° |
| 2026-05-05 15:38 | 30.26148 | -97.68062 | 1526 ft | 137 kts | 181° |
| 2026-05-05 15:38 | 30.25198 | -97.68037 | 1345 ft | 136 kts | 180° |
| 2026-05-05 15:38 | 30.24252 | -97.68012 | 1157 ft | 135 kts | 181° |
| 2026-05-05 15:39 | 30.23316 | -97.67988 | 988 ft | 135 kts | 181° |
| 2026-05-05 15:39 | 30.22378 | -97.67961 | 810 ft | 135 kts | 180° |
| 2026-05-05 15:39 | 30.21438 | -97.67939 | 626 ft | 135 kts | 180° |
| 2026-05-05 15:39 | 30.20508 | -97.67911 | 519 ft | 130 kts | 180° |
| 2026-05-05 15:40 | 30.19765 | -97.67893 | 505 ft | 71 kts | 179° |
| 2026-05-05 15:40 | 30.19477 | -97.67853 | 506 ft | 32 kts | 152° |
| 2026-05-05 15:40 | 30.19399 | -97.67745 | 507 ft | 14 kts | 98° |
| 2026-05-05 15:40 | 30.19396 | -97.67604 | 508 ft | 23 kts | 89° |
| 2026-05-05 15:41 | 30.19398 | -97.67396 | 507 ft | 21 kts | 88° |
| 2026-05-05 15:41 | 30.19511 | -97.67323 | 504 ft | 26 kts | 358° |
| 2026-05-05 15:41 | 30.19672 | -97.67331 | 504 ft | 15 kts | 357° |
| 2026-05-05 15:41 | 30.19788 | -97.67332 | 504 ft | 18 kts | 360° |
| 2026-05-05 15:42 | 30.19892 | -97.67287 | 504 ft | 17 kts | 74° |
| 2026-05-05 15:42 | 30.19899 | -97.67134 | 504 ft | 21 kts | 88° |
| 2026-05-05 15:42 | 30.19922 | -97.67008 | 504 ft | 16 kts | 33° |
| 2026-05-05 15:42 | 30.20024 | -97.66961 | 504 ft | 15 kts | 70° |
| 2026-05-05 15:43 | 30.20027 | -97.66890 | 504 ft | 7 kts | 93° |
| 2026-05-05 15:43 | 30.20031 | -97.66849 | 504 ft | 1 kts | 43° |
| 2026-05-05 15:43 | 30.20044 | -97.66845 | 504 ft | 7 kts | 15° |
| 2026-05-05 15:43 | 30.20107 | -97.66825 | 504 ft | 7 kts | 15° |
| 2026-05-05 15:44 | 30.20142 | -97.66814 | 504 ft | 5 kts | 15° |
| 2026-05-05 15:44 | 30.20147 | -97.66812 | 504 ft | 0 kts | 17° |